sensor_id;sensor_type;location;lat;lon;timestamp;temperature;humidity
23731;DHT22;12046;44.702;10.622;2023-12-28T00:01:29;10.20;99.90
23731;DHT22;12046;44.702;10.622;2023-12-28T00:03:55;10.10;99.90
23731;DHT22;12046;44.702;10.622;2023-12-28T00:06:21;10.00;99.90
23731;DHT22;12046;44.702;10.622;2023-12-28T00:08:47;10.00;99.90
23731;DHT22;12046;44.702;10.622;2023-12-28T00:11:14;10.00;99.90
23731;DHT22;12046;44.702;10.622;2023-12-28T00:13:40;9.90;99.90
23731;DHT22;12046;44.702;10.622;2023-12-28T00:16:06;9.90;99.90
23731;DHT22;12046;44.702;10.622;2023-12-28T00:18:31;9.90;99.90
23731;DHT22;12046;44.702;10.622;2023-12-28T00:20:57;9.90;99.90
23731;DHT22;12046;44.702;10.622;2023-12-28T00:23:23;9.90;99.90
23731;DHT22;12046;44.702;10.622;2023-12-28T00:25:48;9.80;99.90
23731;DHT22;12046;44.702;10.622;2023-12-28T00:28:14;9.80;99.90
23731;DHT22;12046;44.702;10.622;2023-12-28T00:30:40;9.80;99.90
23731;DHT22;12046;44.702;10.622;2023-12-28T00:33:06;9.70;99.90
23731;DHT22;12046;44.702;10.622;2023-12-28T00:35:32;9.70;99.90
23731;DHT22;12046;44.702;10.622;2023-12-28T00:37:58;9.70;99.90
23731;DHT22;12046;44.702;10.622;2023-12-28T00:40:23;9.60;99.90
23731;DHT22;12046;44.702;10.622;2023-12-28T00:42:49;9.60;99.90
23731;DHT22;12046;44.702;10.622;2023-12-28T00:45:15;9.60;99.90
23731;DHT22;12046;44.702;10.622;2023-12-28T00:47:41;9.50;99.90
23731;DHT22;12046;44.702;10.622;2023-12-28T00:50:09;9.50;99.90
23731;DHT22;12046;44.702;10.622;2023-12-28T00:52:37;9.50;99.90
23731;DHT22;12046;44.702;10.622;2023-12-28T00:55:04;9.40;99.90
23731;DHT22;12046;44.702;10.622;2023-12-28T00:57:30;9.40;99.90
23731;DHT22;12046;44.702;10.622;2023-12-28T00:59:56;9.40;99.90
23731;DHT22;12046;44.702;10.622;2023-12-28T01:02:21;9.40;99.90
23731;DHT22;12046;44.702;10.622;2023-12-28T01:04:47;9.40;99.90
23731;DHT22;12046;44.702;10.622;2023-12-28T01:07:13;9.40;99.90
23731;DHT22;12046;44.702;10.622;2023-12-28T01:09:38;9.40;99.90
23731;DHT22;12046;44.702;10.622;2023-12-28T01:12:05;9.30;99.90
23731;DHT22;12046;44.702;10.622;2023-12-28T01:14:30;9.30;99.90
23731;DHT22;12046;44.702;10.622;2023-12-28T01:16:56;9.20;99.90
23731;DHT22;12046;44.702;10.622;2023-12-28T01:19:22;9.20;99.90
23731;DHT22;12046;44.702;10.622;2023-12-28T01:21:49;9.20;99.90
23731;DHT22;12046;44.702;10.622;2023-12-28T01:24:15;9.10;99.90
23731;DHT22;12046;44.702;10.622;2023-12-28T01:26:41;9.10;99.90
23731;DHT22;12046;44.702;10.622;2023-12-28T01:29:07;9.00;99.90
23731;DHT22;12046;44.702;10.622;2023-12-28T01:31:32;9.00;99.90
23731;DHT22;12046;44.702;10.622;2023-12-28T01:33:58;9.00;99.90
23731;DHT22;12046;44.702;10.622;2023-12-28T01:36:24;9.00;99.90
23731;DHT22;12046;44.702;10.622;2023-12-28T01:38:50;8.90;99.90
23731;DHT22;12046;44.702;10.622;2023-12-28T01:41:15;8.90;99.90
23731;DHT22;12046;44.702;10.622;2023-12-28T01:43:42;8.80;99.90
23731;DHT22;12046;44.702;10.622;2023-12-28T01:46:12;8.80;99.90
23731;DHT22;12046;44.702;10.622;2023-12-28T01:48:40;8.70;99.90
23731;DHT22;12046;44.702;10.622;2023-12-28T01:51:07;8.60;99.90
23731;DHT22;12046;44.702;10.622;2023-12-28T01:53:33;8.50;99.90
23731;DHT22;12046;44.702;10.622;2023-12-28T01:55:59;8.50;99.90
23731;DHT22;12046;44.702;10.622;2023-12-28T01:58:27;8.40;99.90
23731;DHT22;12046;44.702;10.622;2023-12-28T02:00:56;8.30;99.90
23731;DHT22;12046;44.702;10.622;2023-12-28T02:03:21;8.30;99.90
23731;DHT22;12046;44.702;10.622;2023-12-28T02:05:48;8.30;99.90
23731;DHT22;12046;44.702;10.622;2023-12-28T02:08:13;8.20;99.90
23731;DHT22;12046;44.702;10.622;2023-12-28T02:10:39;8.20;99.90
23731;DHT22;12046;44.702;10.622;2023-12-28T02:13:05;8.10;99.90
23731;DHT22;12046;44.702;10.622;2023-12-28T02:15:32;8.10;99.90
23731;DHT22;12046;44.702;10.622;2023-12-28T02:18:05;8.10;99.90
23731;DHT22;12046;44.702;10.622;2023-12-28T02:20:34;8.00;99.90
23731;DHT22;12046;44.702;10.622;2023-12-28T02:23:01;8.00;99.90
23731;DHT22;12046;44.702;10.622;2023-12-28T02:25:27;8.00;99.90
23731;DHT22;12046;44.702;10.622;2023-12-28T02:27:53;8.00;99.90
23731;DHT22;12046;44.702;10.622;2023-12-28T02:30:23;8.00;99.90
23731;DHT22;12046;44.702;10.622;2023-12-28T02:33:02;8.00;99.90
23731;DHT22;12046;44.702;10.622;2023-12-28T02:35:36;8.00;99.90
23731;DHT22;12046;44.702;10.622;2023-12-28T02:38:11;7.90;99.90
23731;DHT22;12046;44.702;10.622;2023-12-28T02:40:39;7.90;99.90
23731;DHT22;12046;44.702;10.622;2023-12-28T02:43:06;7.80;99.90
23731;DHT22;12046;44.702;10.622;2023-12-28T02:45:33;7.80;99.90
23731;DHT22;12046;44.702;10.622;2023-12-28T02:47:59;7.80;99.90
23731;DHT22;12046;44.702;10.622;2023-12-28T02:50:25;7.70;99.90
23731;DHT22;12046;44.702;10.622;2023-12-28T02:52:51;7.70;99.90
23731;DHT22;12046;44.702;10.622;2023-12-28T02:55:17;7.60;99.90
23731;DHT22;12046;44.702;10.622;2023-12-28T02:57:45;7.60;99.90
23731;DHT22;12046;44.702;10.622;2023-12-28T03:00:12;7.50;99.90
23731;DHT22;12046;44.702;10.622;2023-12-28T03:02:38;7.50;99.90
23731;DHT22;12046;44.702;10.622;2023-12-28T03:05:05;7.50;99.90
23731;DHT22;12046;44.702;10.622;2023-12-28T03:07:34;7.40;99.90
23731;DHT22;12046;44.702;10.622;2023-12-28T03:10:00;7.40;99.90
23731;DHT22;12046;44.702;10.622;2023-12-28T03:12:27;7.40;99.90
23731;DHT22;12046;44.702;10.622;2023-12-28T03:14:53;7.40;99.90
23731;DHT22;12046;44.702;10.622;2023-12-28T03:17:19;7.30;99.90
23731;DHT22;12046;44.702;10.622;2023-12-28T03:19:45;7.30;99.90
23731;DHT22;12046;44.702;10.622;2023-12-28T03:22:10;7.30;99.90
23731;DHT22;12046;44.702;10.622;2023-12-28T03:24:38;7.30;99.90
23731;DHT22;12046;44.702;10.622;2023-12-28T03:27:04;7.20;99.90
23731;DHT22;12046;44.702;10.622;2023-12-28T03:29:30;7.20;99.90
23731;DHT22;12046;44.702;10.622;2023-12-28T03:31:56;7.20;99.90
23731;DHT22;12046;44.702;10.622;2023-12-28T03:34:23;7.20;99.90
23731;DHT22;12046;44.702;10.622;2023-12-28T03:36:49;7.30;99.90
23731;DHT22;12046;44.702;10.622;2023-12-28T03:39:15;7.20;99.90
23731;DHT22;12046;44.702;10.622;2023-12-28T03:41:41;7.30;99.90
23731;DHT22;12046;44.702;10.622;2023-12-28T03:44:07;7.30;99.90
23731;DHT22;12046;44.702;10.622;2023-12-28T03:46:33;7.30;99.90
23731;DHT22;12046;44.702;10.622;2023-12-28T03:48:58;7.30;99.90
23731;DHT22;12046;44.702;10.622;2023-12-28T03:51:24;7.30;99.90
23731;DHT22;12046;44.702;10.622;2023-12-28T03:53:50;7.40;99.90
23731;DHT22;12046;44.702;10.622;2023-12-28T03:56:23;7.40;99.90
23731;DHT22;12046;44.702;10.622;2023-12-28T03:58:49;7.30;99.90
23731;DHT22;12046;44.702;10.622;2023-12-28T04:01:19;7.30;99.90
23731;DHT22;12046;44.702;10.622;2023-12-28T04:03:45;7.30;99.90
23731;DHT22;12046;44.702;10.622;2023-12-28T04:06:12;7.30;99.90
23731;DHT22;12046;44.702;10.622;2023-12-28T04:08:39;7.30;99.90
23731;DHT22;12046;44.702;10.622;2023-12-28T04:11:05;7.30;99.90
23731;DHT22;12046;44.702;10.622;2023-12-28T04:13:31;7.30;99.90
23731;DHT22;12046;44.702;10.622;2023-12-28T04:15:56;7.30;99.90
23731;DHT22;12046;44.702;10.622;2023-12-28T04:18:22;7.30;99.90
23731;DHT22;12046;44.702;10.622;2023-12-28T04:20:48;7.30;99.90
23731;DHT22;12046;44.702;10.622;2023-12-28T04:23:14;7.30;99.90
23731;DHT22;12046;44.702;10.622;2023-12-28T04:25:40;7.30;99.90
23731;DHT22;12046;44.702;10.622;2023-12-28T04:28:06;7.30;99.90
23731;DHT22;12046;44.702;10.622;2023-12-28T04:30:32;7.30;99.90
23731;DHT22;12046;44.702;10.622;2023-12-28T04:32:58;7.30;99.90
23731;DHT22;12046;44.702;10.622;2023-12-28T04:35:24;7.20;99.90
23731;DHT22;12046;44.702;10.622;2023-12-28T04:37:50;7.20;99.90
23731;DHT22;12046;44.702;10.622;2023-12-28T04:40:15;7.20;99.90
23731;DHT22;12046;44.702;10.622;2023-12-28T04:42:43;7.10;99.90
23731;DHT22;12046;44.702;10.622;2023-12-28T04:45:09;7.10;99.90
23731;DHT22;12046;44.702;10.622;2023-12-28T04:47:36;7.00;99.90
23731;DHT22;12046;44.702;10.622;2023-12-28T04:50:03;7.00;99.90
23731;DHT22;12046;44.702;10.622;2023-12-28T04:52:29;7.00;99.90
23731;DHT22;12046;44.702;10.622;2023-12-28T04:54:55;6.90;99.90
23731;DHT22;12046;44.702;10.622;2023-12-28T04:57:20;6.90;99.90
23731;DHT22;12046;44.702;10.622;2023-12-28T04:59:46;6.90;99.90
23731;DHT22;12046;44.702;10.622;2023-12-28T05:02:12;6.90;99.90
23731;DHT22;12046;44.702;10.622;2023-12-28T05:04:38;6.90;99.90
23731;DHT22;12046;44.702;10.622;2023-12-28T05:07:06;6.80;99.90
23731;DHT22;12046;44.702;10.622;2023-12-28T05:09:32;6.80;99.90
23731;DHT22;12046;44.702;10.622;2023-12-28T05:11:58;6.80;99.90
23731;DHT22;12046;44.702;10.622;2023-12-28T05:14:24;6.70;99.90
23731;DHT22;12046;44.702;10.622;2023-12-28T05:16:49;6.70;99.90
23731;DHT22;12046;44.702;10.622;2023-12-28T05:19:16;6.70;99.90
23731;DHT22;12046;44.702;10.622;2023-12-28T05:21:41;6.70;99.90
23731;DHT22;12046;44.702;10.622;2023-12-28T05:24:07;6.70;99.90
23731;DHT22;12046;44.702;10.622;2023-12-28T05:26:34;6.60;99.90
23731;DHT22;12046;44.702;10.622;2023-12-28T05:29:00;6.60;99.90
23731;DHT22;12046;44.702;10.622;2023-12-28T05:31:26;6.60;99.90
23731;DHT22;12046;44.702;10.622;2023-12-28T05:33:51;6.60;99.90
23731;DHT22;12046;44.702;10.622;2023-12-28T05:36:17;6.60;99.90
23731;DHT22;12046;44.702;10.622;2023-12-28T05:38:43;6.60;99.90
23731;DHT22;12046;44.702;10.622;2023-12-28T05:41:12;6.60;99.90
23731;DHT22;12046;44.702;10.622;2023-12-28T05:43:38;6.60;99.90
23731;DHT22;12046;44.702;10.622;2023-12-28T05:46:04;6.60;99.90
23731;DHT22;12046;44.702;10.622;2023-12-28T05:48:30;6.50;99.90
23731;DHT22;12046;44.702;10.622;2023-12-28T05:50:59;6.50;99.90
23731;DHT22;12046;44.702;10.622;2023-12-28T05:53:25;6.60;99.90
23731;DHT22;12046;44.702;10.622;2023-12-28T05:55:52;6.50;99.90
23731;DHT22;12046;44.702;10.622;2023-12-28T05:58:19;6.50;99.90
23731;DHT22;12046;44.702;10.622;2023-12-28T06:00:44;6.50;99.90
23731;DHT22;12046;44.702;10.622;2023-12-28T06:03:12;6.60;99.90
23731;DHT22;12046;44.702;10.622;2023-12-28T06:05:38;6.60;99.90
23731;DHT22;12046;44.702;10.622;2023-12-28T06:08:04;6.60;99.90
23731;DHT22;12046;44.702;10.622;2023-12-28T06:10:30;6.70;99.90
23731;DHT22;12046;44.702;10.622;2023-12-28T06:12:56;6.70;99.90
23731;DHT22;12046;44.702;10.622;2023-12-28T06:15:22;6.70;99.90
23731;DHT22;12046;44.702;10.622;2023-12-28T06:17:48;6.80;99.90
23731;DHT22;12046;44.702;10.622;2023-12-28T06:20:14;6.80;99.90
23731;DHT22;12046;44.702;10.622;2023-12-28T06:22:39;6.80;99.90
23731;DHT22;12046;44.702;10.622;2023-12-28T06:25:05;6.80;99.90
23731;DHT22;12046;44.702;10.622;2023-12-28T06:27:32;6.80;99.90
23731;DHT22;12046;44.702;10.622;2023-12-28T06:29:58;6.70;99.90
23731;DHT22;12046;44.702;10.622;2023-12-28T06:32:24;6.70;99.90
23731;DHT22;12046;44.702;10.622;2023-12-28T06:34:50;6.60;99.90
23731;DHT22;12046;44.702;10.622;2023-12-28T06:37:16;6.60;99.90
23731;DHT22;12046;44.702;10.622;2023-12-28T06:39:42;6.50;99.90
23731;DHT22;12046;44.702;10.622;2023-12-28T06:42:08;6.40;99.90
23731;DHT22;12046;44.702;10.622;2023-12-28T06:44:34;6.40;99.90
23731;DHT22;12046;44.702;10.622;2023-12-28T06:47:00;6.30;99.90
23731;DHT22;12046;44.702;10.622;2023-12-28T06:49:26;6.30;99.90
23731;DHT22;12046;44.702;10.622;2023-12-28T06:51:51;6.20;99.90
23731;DHT22;12046;44.702;10.622;2023-12-28T06:54:18;6.20;99.90
23731;DHT22;12046;44.702;10.622;2023-12-28T06:56:44;6.20;99.90
23731;DHT22;12046;44.702;10.622;2023-12-28T06:59:09;6.10;99.90
23731;DHT22;12046;44.702;10.622;2023-12-28T07:01:38;6.10;99.90
23731;DHT22;12046;44.702;10.622;2023-12-28T07:04:04;6.10;99.90
23731;DHT22;12046;44.702;10.622;2023-12-28T07:06:30;6.10;99.90
23731;DHT22;12046;44.702;10.622;2023-12-28T07:08:56;6.10;99.90
23731;DHT22;12046;44.702;10.622;2023-12-28T07:11:22;6.10;99.90
23731;DHT22;12046;44.702;10.622;2023-12-28T07:13:48;6.20;99.90
23731;DHT22;12046;44.702;10.622;2023-12-28T07:16:14;6.20;99.90
23731;DHT22;12046;44.702;10.622;2023-12-28T07:18:41;6.20;99.90
23731;DHT22;12046;44.702;10.622;2023-12-28T07:21:07;6.20;99.90
23731;DHT22;12046;44.702;10.622;2023-12-28T07:23:35;6.30;99.90
23731;DHT22;12046;44.702;10.622;2023-12-28T07:26:02;6.30;99.90
23731;DHT22;12046;44.702;10.622;2023-12-28T07:28:28;6.30;99.90
23731;DHT22;12046;44.702;10.622;2023-12-28T07:30:53;6.40;99.90
23731;DHT22;12046;44.702;10.622;2023-12-28T07:33:19;6.40;99.90
23731;DHT22;12046;44.702;10.622;2023-12-28T07:35:45;6.50;99.90
23731;DHT22;12046;44.702;10.622;2023-12-28T07:38:11;6.60;99.90
23731;DHT22;12046;44.702;10.622;2023-12-28T07:40:37;6.70;99.90
23731;DHT22;12046;44.702;10.622;2023-12-28T07:43:03;6.80;99.90
23731;DHT22;12046;44.702;10.622;2023-12-28T07:45:29;6.80;99.90
23731;DHT22;12046;44.702;10.622;2023-12-28T07:47:55;6.90;99.90
23731;DHT22;12046;44.702;10.622;2023-12-28T07:50:22;7.10;99.90
23731;DHT22;12046;44.702;10.622;2023-12-28T07:52:49;7.20;99.90
23731;DHT22;12046;44.702;10.622;2023-12-28T07:55:15;7.40;99.90
23731;DHT22;12046;44.702;10.622;2023-12-28T07:57:41;7.70;99.90
23731;DHT22;12046;44.702;10.622;2023-12-28T08:00:08;8.00;99.90
23731;DHT22;12046;44.702;10.622;2023-12-28T08:02:35;8.20;99.90
23731;DHT22;12046;44.702;10.622;2023-12-28T08:05:01;8.50;99.90
23731;DHT22;12046;44.702;10.622;2023-12-28T08:07:26;8.80;99.90
23731;DHT22;12046;44.702;10.622;2023-12-28T08:09:53;9.10;99.90
23731;DHT22;12046;44.702;10.622;2023-12-28T08:12:19;9.40;99.90
23731;DHT22;12046;44.702;10.622;2023-12-28T08:14:46;9.70;99.90
23731;DHT22;12046;44.702;10.622;2023-12-28T08:17:13;10.00;99.90
23731;DHT22;12046;44.702;10.622;2023-12-28T08:19:39;10.30;99.90
23731;DHT22;12046;44.702;10.622;2023-12-28T08:22:05;10.60;99.90
23731;DHT22;12046;44.702;10.622;2023-12-28T08:24:31;10.80;99.90
23731;DHT22;12046;44.702;10.622;2023-12-28T08:26:58;11.10;99.90
23731;DHT22;12046;44.702;10.622;2023-12-28T08:29:26;11.30;99.90
23731;DHT22;12046;44.702;10.622;2023-12-28T08:31:52;11.50;99.90
23731;DHT22;12046;44.702;10.622;2023-12-28T08:34:19;11.70;99.90
23731;DHT22;12046;44.702;10.622;2023-12-28T08:36:45;11.80;99.90
23731;DHT22;12046;44.702;10.622;2023-12-28T08:39:11;12.00;99.90
23731;DHT22;12046;44.702;10.622;2023-12-28T08:41:37;12.30;99.90
23731;DHT22;12046;44.702;10.622;2023-12-28T08:44:04;12.60;99.90
23731;DHT22;12046;44.702;10.622;2023-12-28T08:46:30;13.00;99.90
23731;DHT22;12046;44.702;10.622;2023-12-28T08:48:56;13.60;99.90
23731;DHT22;12046;44.702;10.622;2023-12-28T08:51:22;14.30;99.90
23731;DHT22;12046;44.702;10.622;2023-12-28T08:53:50;15.10;99.90
23731;DHT22;12046;44.702;10.622;2023-12-28T08:56:17;16.20;99.90
23731;DHT22;12046;44.702;10.622;2023-12-28T08:58:47;17.40;99.90
23731;DHT22;12046;44.702;10.622;2023-12-28T09:01:20;18.80;99.30
23731;DHT22;12046;44.702;10.622;2023-12-28T09:03:51;20.40;96.10
23731;DHT22;12046;44.702;10.622;2023-12-28T09:06:19;22.00;92.80
23731;DHT22;12046;44.702;10.622;2023-12-28T09:08:46;23.40;90.00
23731;DHT22;12046;44.702;10.622;2023-12-28T09:11:13;24.80;84.40
23731;DHT22;12046;44.702;10.622;2023-12-28T09:13:40;26.20;1.00
23731;DHT22;12046;44.702;10.622;2023-12-28T09:16:11;27.40;1.00
23731;DHT22;12046;44.702;10.622;2023-12-28T09:18:39;28.80;1.00
23731;DHT22;12046;44.702;10.622;2023-12-28T09:21:07;30.00;99.90
23731;DHT22;12046;44.702;10.622;2023-12-28T09:23:34;31.20;99.90
23731;DHT22;12046;44.702;10.622;2023-12-28T09:26:01;32.30;99.90
23731;DHT22;12046;44.702;10.622;2023-12-28T09:28:31;33.10;99.90
23731;DHT22;12046;44.702;10.622;2023-12-28T09:30:57;33.70;99.90
23731;DHT22;12046;44.702;10.622;2023-12-28T09:33:23;34.30;99.90
23731;DHT22;12046;44.702;10.622;2023-12-28T09:35:50;35.00;99.90
23731;DHT22;12046;44.702;10.622;2023-12-28T09:38:16;35.90;99.90
23731;DHT22;12046;44.702;10.622;2023-12-28T09:40:42;36.70;99.90
23731;DHT22;12046;44.702;10.622;2023-12-28T09:43:25;37.30;99.90
23731;DHT22;12046;44.702;10.622;2023-12-28T09:45:53;38.00;99.90
23731;DHT22;12046;44.702;10.622;2023-12-28T09:48:21;38.60;99.90
23731;DHT22;12046;44.702;10.622;2023-12-28T09:50:54;39.00;99.90
23731;DHT22;12046;44.702;10.622;2023-12-28T09:53:23;39.40;99.90
23731;DHT22;12046;44.702;10.622;2023-12-28T09:55:50;39.70;99.90
23731;DHT22;12046;44.702;10.622;2023-12-28T09:58:20;40.10;99.90
23731;DHT22;12046;44.702;10.622;2023-12-28T10:00:49;40.60;99.90
23731;DHT22;12046;44.702;10.622;2023-12-28T10:03:16;40.80;99.90
23731;DHT22;12046;44.702;10.622;2023-12-28T10:05:43;41.10;90.90
23731;DHT22;12046;44.702;10.622;2023-12-28T10:08:14;41.40;84.50
23731;DHT22;12046;44.702;10.622;2023-12-28T10:10:41;41.70;80.40
23731;DHT22;12046;44.702;10.622;2023-12-28T10:13:07;42.00;75.70
23731;DHT22;12046;44.702;10.622;2023-12-28T10:15:35;42.30;72.20
23731;DHT22;12046;44.702;10.622;2023-12-28T10:18:01;42.30;68.10
23731;DHT22;12046;44.702;10.622;2023-12-28T10:20:29;42.40;66.00
23731;DHT22;12046;44.702;10.622;2023-12-28T10:22:55;42.60;62.00
23731;DHT22;12046;44.702;10.622;2023-12-28T10:25:21;42.80;60.30
23731;DHT22;12046;44.702;10.622;2023-12-28T10:27:50;43.10;58.00
23731;DHT22;12046;44.702;10.622;2023-12-28T10:30:19;43.30;56.10
23731;DHT22;12046;44.702;10.622;2023-12-28T10:32:45;43.60;53.90
23731;DHT22;12046;44.702;10.622;2023-12-28T10:35:12;43.70;52.40
23731;DHT22;12046;44.702;10.622;2023-12-28T10:37:41;43.90;50.10
23731;DHT22;12046;44.702;10.622;2023-12-28T10:40:08;44.00;48.50
23731;DHT22;12046;44.702;10.622;2023-12-28T10:42:54;44.00;47.20
23731;DHT22;12046;44.702;10.622;2023-12-28T10:45:20;44.10;45.60
23731;DHT22;12046;44.702;10.622;2023-12-28T10:48:10;44.30;44.80
23731;DHT22;12046;44.702;10.622;2023-12-28T10:50:46;44.60;41.80
23731;DHT22;12046;44.702;10.622;2023-12-28T10:56:14;45.00;39.60
23731;DHT22;12046;44.702;10.622;2023-12-28T11:01:32;45.10;36.30
23731;DHT22;12046;44.702;10.622;2023-12-28T11:04:07;45.10;34.70
23731;DHT22;12046;44.702;10.622;2023-12-28T11:06:34;45.20;34.60
23731;DHT22;12046;44.702;10.622;2023-12-28T11:09:01;45.40;32.30
23731;DHT22;12046;44.702;10.622;2023-12-28T11:11:27;45.40;31.70
23731;DHT22;12046;44.702;10.622;2023-12-28T11:13:59;45.50;30.70
23731;DHT22;12046;44.702;10.622;2023-12-28T11:16:27;45.70;29.20
23731;DHT22;12046;44.702;10.622;2023-12-28T11:18:54;45.70;28.90
23731;DHT22;12046;44.702;10.622;2023-12-28T11:21:20;45.60;28.20
23731;DHT22;12046;44.702;10.622;2023-12-28T11:23:47;45.50;27.30
23731;DHT22;12046;44.702;10.622;2023-12-28T11:26:31;45.70;27.70
23731;DHT22;12046;44.702;10.622;2023-12-28T11:29:04;46.00;26.10
23731;DHT22;12046;44.702;10.622;2023-12-28T11:31:34;46.10;25.10
23731;DHT22;12046;44.702;10.622;2023-12-28T11:34:01;46.20;24.00
23731;DHT22;12046;44.702;10.622;2023-12-28T11:36:40;46.30;23.20
23731;DHT22;12046;44.702;10.622;2023-12-28T11:39:09;46.30;22.70
23731;DHT22;12046;44.702;10.622;2023-12-28T11:41:36;46.50;22.30
23731;DHT22;12046;44.702;10.622;2023-12-28T11:44:03;46.80;21.60
23731;DHT22;12046;44.702;10.622;2023-12-28T11:46:34;46.80;20.90
23731;DHT22;12046;44.702;10.622;2023-12-28T11:49:05;46.30;20.50
23731;DHT22;12046;44.702;10.622;2023-12-28T11:51:33;45.30;20.80
23731;DHT22;12046;44.702;10.622;2023-12-28T11:53:59;43.70;20.30
23731;DHT22;12046;44.702;10.622;2023-12-28T11:56:26;41.50;21.40
23731;DHT22;12046;44.702;10.622;2023-12-28T11:58:51;39.40;22.50
23731;DHT22;12046;44.702;10.622;2023-12-28T12:01:17;37.70;22.80
23731;DHT22;12046;44.702;10.622;2023-12-28T12:03:43;36.40;21.10
23731;DHT22;12046;44.702;10.622;2023-12-28T12:06:10;34.90;22.70
23731;DHT22;12046;44.702;10.622;2023-12-28T12:08:36;33.40;22.20
23731;DHT22;12046;44.702;10.622;2023-12-28T12:11:04;32.30;25.60
23731;DHT22;12046;44.702;10.622;2023-12-28T12:13:31;31.50;26.40
23731;DHT22;12046;44.702;10.622;2023-12-28T12:15:57;30.50;26.60
23731;DHT22;12046;44.702;10.622;2023-12-28T12:18:23;29.40;25.50
23731;DHT22;12046;44.702;10.622;2023-12-28T12:20:50;28.20;29.10
23731;DHT22;12046;44.702;10.622;2023-12-28T12:23:16;27.00;29.60
23731;DHT22;12046;44.702;10.622;2023-12-28T12:25:42;26.00;30.80
23731;DHT22;12046;44.702;10.622;2023-12-28T12:28:11;25.20;32.20
23731;DHT22;12046;44.702;10.622;2023-12-28T12:30:37;24.60;32.40
23731;DHT22;12046;44.702;10.622;2023-12-28T12:33:03;24.10;34.40
23731;DHT22;12046;44.702;10.622;2023-12-28T12:35:29;24.10;39.40
23731;DHT22;12046;44.702;10.622;2023-12-28T12:37:55;24.80;37.60
23731;DHT22;12046;44.702;10.622;2023-12-28T12:40:21;26.00;37.90
23731;DHT22;12046;44.702;10.622;2023-12-28T12:42:56;27.40;39.10
23731;DHT22;12046;44.702;10.622;2023-12-28T12:45:22;28.50;36.00
23731;DHT22;12046;44.702;10.622;2023-12-28T12:47:48;29.40;35.70
23731;DHT22;12046;44.702;10.622;2023-12-28T12:50:15;30.40;35.90
23731;DHT22;12046;44.702;10.622;2023-12-28T12:52:41;31.40;32.80
23731;DHT22;12046;44.702;10.622;2023-12-28T12:55:11;32.70;35.00
23731;DHT22;12046;44.702;10.622;2023-12-28T12:57:38;34.10;34.40
23731;DHT22;12046;44.702;10.622;2023-12-28T13:00:05;35.10;32.20
23731;DHT22;12046;44.702;10.622;2023-12-28T13:02:34;35.90;32.80
23731;DHT22;12046;44.702;10.622;2023-12-28T13:05:02;36.60;32.40
23731;DHT22;12046;44.702;10.622;2023-12-28T13:07:29;37.40;31.40
23731;DHT22;12046;44.702;10.622;2023-12-28T13:09:55;37.90;31.50
23731;DHT22;12046;44.702;10.622;2023-12-28T13:12:21;38.10;32.10
23731;DHT22;12046;44.702;10.622;2023-12-28T13:14:47;38.00;29.80
23731;DHT22;12046;44.702;10.622;2023-12-28T13:17:12;37.80;29.10
23731;DHT22;12046;44.702;10.622;2023-12-28T13:19:38;37.50;29.00
23731;DHT22;12046;44.702;10.622;2023-12-28T13:22:04;37.00;29.00
23731;DHT22;12046;44.702;10.622;2023-12-28T13:24:31;36.60;28.40
23731;DHT22;12046;44.702;10.622;2023-12-28T13:26:57;36.10;28.70
23731;DHT22;12046;44.702;10.622;2023-12-28T13:29:23;35.70;28.60
23731;DHT22;12046;44.702;10.622;2023-12-28T13:31:48;35.40;38.70
23731;DHT22;12046;44.702;10.622;2023-12-28T13:34:16;34.20;40.10
23731;DHT22;12046;44.702;10.622;2023-12-28T13:36:44;32.70;29.50
23731;DHT22;12046;44.702;10.622;2023-12-28T13:39:10;31.40;29.30
23731;DHT22;12046;44.702;10.622;2023-12-28T13:41:39;30.20;30.40
23731;DHT22;12046;44.702;10.622;2023-12-28T13:44:06;29.00;32.10
23731;DHT22;12046;44.702;10.622;2023-12-28T13:46:36;27.70;32.60
23731;DHT22;12046;44.702;10.622;2023-12-28T13:49:02;26.40;33.30
23731;DHT22;12046;44.702;10.622;2023-12-28T13:51:30;25.30;34.60
23731;DHT22;12046;44.702;10.622;2023-12-28T13:53:56;24.50;38.40
23731;DHT22;12046;44.702;10.622;2023-12-28T13:56:21;23.80;39.10
23731;DHT22;12046;44.702;10.622;2023-12-28T13:58:47;23.70;53.40
23731;DHT22;12046;44.702;10.622;2023-12-28T14:01:13;24.20;39.60
23731;DHT22;12046;44.702;10.622;2023-12-28T14:03:39;25.00;38.00
23731;DHT22;12046;44.702;10.622;2023-12-28T14:06:05;25.50;40.70
23731;DHT22;12046;44.702;10.622;2023-12-28T14:08:31;26.00;38.30
23731;DHT22;12046;44.702;10.622;2023-12-28T14:10:57;26.40;38.10
23731;DHT22;12046;44.702;10.622;2023-12-28T14:13:23;26.50;36.60
23731;DHT22;12046;44.702;10.622;2023-12-28T14:15:49;26.40;37.70
23731;DHT22;12046;44.702;10.622;2023-12-28T14:18:15;26.00;37.10
23731;DHT22;12046;44.702;10.622;2023-12-28T14:20:41;25.40;40.20
23731;DHT22;12046;44.702;10.622;2023-12-28T14:23:07;24.80;37.20
23731;DHT22;12046;44.702;10.622;2023-12-28T14:25:33;24.30;40.00
23731;DHT22;12046;44.702;10.622;2023-12-28T14:27:59;23.70;42.90
23731;DHT22;12046;44.702;10.622;2023-12-28T14:30:26;23.20;41.30
23731;DHT22;12046;44.702;10.622;2023-12-28T14:32:52;22.70;44.90
23731;DHT22;12046;44.702;10.622;2023-12-28T14:35:18;22.10;45.50
23731;DHT22;12046;44.702;10.622;2023-12-28T14:37:45;21.50;46.70
23731;DHT22;12046;44.702;10.622;2023-12-28T14:40:11;20.90;44.40
23731;DHT22;12046;44.702;10.622;2023-12-28T14:42:40;20.40;48.10
23731;DHT22;12046;44.702;10.622;2023-12-28T14:45:06;19.90;46.50
23731;DHT22;12046;44.702;10.622;2023-12-28T14:47:33;19.40;51.70
23731;DHT22;12046;44.702;10.622;2023-12-28T14:49:58;18.90;99.90
23731;DHT22;12046;44.702;10.622;2023-12-28T14:52:25;18.40;99.90
23731;DHT22;12046;44.702;10.622;2023-12-28T14:54:50;18.10;99.90
23731;DHT22;12046;44.702;10.622;2023-12-28T14:57:17;17.70;99.90
23731;DHT22;12046;44.702;10.622;2023-12-28T14:59:42;17.40;99.90
23731;DHT22;12046;44.702;10.622;2023-12-28T15:02:08;17.10;99.90
23731;DHT22;12046;44.702;10.622;2023-12-28T15:04:34;16.90;99.90
23731;DHT22;12046;44.702;10.622;2023-12-28T15:07:00;16.60;99.90
23731;DHT22;12046;44.702;10.622;2023-12-28T15:09:26;16.50;99.90
23731;DHT22;12046;44.702;10.622;2023-12-28T15:11:52;16.30;99.90
23731;DHT22;12046;44.702;10.622;2023-12-28T15:14:19;16.10;99.90
23731;DHT22;12046;44.702;10.622;2023-12-28T15:16:45;15.90;99.90
23731;DHT22;12046;44.702;10.622;2023-12-28T15:19:12;15.70;99.90
23731;DHT22;12046;44.702;10.622;2023-12-28T15:21:38;15.60;99.90
23731;DHT22;12046;44.702;10.622;2023-12-28T15:24:04;15.50;99.90
23731;DHT22;12046;44.702;10.622;2023-12-28T15:26:31;15.40;99.90
23731;DHT22;12046;44.702;10.622;2023-12-28T15:28:57;15.20;99.90